Latest Weather Observations for Kyabram

IDV60801

Issued at 7:35 pm EST Friday 29 August 2014 (issued every 30 minutes, with the page automatically refreshed every 10 minutes)

About weather observations | Map of weather stations | Latest weather observations for VIC | Other Formats
Station Details ID: 080091 Name: KYABRAM Lat: -36.34 Lon: 145.06 Height: 105.0 m
Data from the previous 72 hours. | See also: Recent months at Kyabram
Date/Time
EST
Temp
°C
App
Temp
°C
Dew
Point
Rel
Hum
%
Delta-T
°C
Wind Press
QNH
hPa
Press
MSL
hPa
Rain
since 9 am
mm
Dir
 
Spd
km/h
Gust
km/h
Spd
kts
Gust
kts
29/07:30pm 11.3 9.4 8.9 85 1.2 S 9 13 5 7 - - 0.0
29/07:00pm 12.3 11.5 8.0 75 2.1 S 2 11 1 6 - - 0.0
29/06:30pm 12.7 12.1 7.6 71 2.5 CALM 0 0 0 0 - - 0.0
29/06:00pm 13.9 13.7 8.9 72 2.5 CALM 0 0 0 0 - - 0.0
29/05:30pm 16.0 15.8 9.2 64 3.5 CALM 0 0 0 0 - - 0.0
29/05:00pm 17.8 17.4 8.1 53 5.0 CALM 0 0 0 0 - - 0.0
29/04:30pm 18.4 18.1 8.7 53 5.1 CALM 0 0 0 0 - - 0.0
29/04:00pm 19.1 18.6 7.8 48 5.8 CALM 0 0 0 0 - - 0.0
29/03:30pm 19.1 18.6 7.8 48 5.8 CALM 0 0 0 0 - - 0.0
29/03:00pm 19.1 18.1 7.5 47 5.9 SSW 2 11 1 6 - - 0.0
29/02:30pm 19.1 17.5 7.8 48 5.8 SW 6 13 3 7 - - 0.0
29/02:00pm 19.0 17.8 6.5 44 6.3 SSW 2 13 1 7 - - 0.0
29/01:30pm 18.7 17.3 8.7 52 5.2 S 6 13 3 7 - - 0.0
29/01:00pm 18.4 18.2 9.2 55 4.8 CALM 0 9 0 5 - - 0.0
29/12:30pm 18.1 17.8 10.0 59 4.3 SSW 2 11 1 6 - - 0.0
29/12:00pm 17.1 17.2 10.0 63 3.8 CALM 0 0 0 0 - - 0.0
29/11:30am 16.3 16.6 11.0 71 2.9 CALM 0 0 0 0 - - 0.0
29/11:00am 15.3 15.7 11.1 76 2.3 CALM 0 0 0 0 - - 0.0
29/10:30am 14.1 14.4 10.9 81 1.7 CALM 0 0 0 0 - - 0.0
29/10:00am 13.0 13.4 11.2 89 1.0 CALM 0 0 0 0 - - 0.0
29/09:30am 11.2 11.5 11.0 99 0.1 CALM 0 0 0 0 - - 0.0
29/09:00am 9.6 - 9.7 - - CALM 0 0 0 0 - - 0.0
29/08:30am 8.0 - 8.1 - - CALM 0 0 0 0 - - 0.0
29/08:00am 5.9 - 6.0 - - CALM 0 0 0 0 - - 0.0
29/07:30am 3.5 2.1 3.5 100 0.0 CALM 0 0 0 0 - - 0.0
29/07:00am 2.2 0.6 2.2 100 0.0 CALM 0 0 0 0 - - 0.0
29/06:30am 2.9 1.4 2.9 100 0.0 CALM 0 0 0 0 - - 0.0
29/06:00am 2.6 1.0 2.6 100 0.0 CALM 0 0 0 0 - - 0.0
29/05:30am 3.0 1.5 3.0 100 0.0 CALM 0 0 0 0 - - 0.0
29/05:00am 3.5 2.1 3.5 100 0.0 CALM 0 0 0 0 - - 0.0
29/04:30am 3.5 2.1 3.5 100 0.0 CALM 0 0 0 0 - - 0.0
29/04:00am 4.0 2.7 4.0 100 0.0 CALM 0 0 0 0 - - 0.0
29/03:30am 4.0 2.7 4.0 100 0.0 CALM 0 0 0 0 - - 0.0
29/03:00am 4.3 3.0 4.3 100 0.0 CALM 0 0 0 0 - - 0.0
29/02:30am 4.5 3.3 4.5 100 0.0 CALM 0 0 0 0 - - 0.0
29/02:00am 4.7 3.5 4.7 100 0.0 CALM 0 0 0 0 - - 0.0
29/01:30am 5.3 4.2 5.3 100 0.0 CALM 0 0 0 0 - - 0.0
29/01:00am 4.8 3.6 4.8 100 0.0 CALM 0 0 0 0 - - 0.0
29/12:30am 5.7 4.7 5.7 100 0.0 CALM 0 0 0 0 - - 0.0
29/12:00am 6.0 5.1 6.0 100 0.0 SSW 0 0 0 0 - - 0.0
 
Date/Time
EST
Temp
°C
App
Temp
°C
Dew
Point
Rel
Hum
%
Delta-T
°C
Wind Press
QNH
hPa
Press
MSL
hPa
Rain
since 9 am
mm
Dir
 
Spd
km/h
Gust
km/h
Spd
kts
Gust
kts
28/11:30pm 6.4 5.6 6.4 100 0.0 CALM 0 0 0 0 - - 0.0
28/11:00pm 6.4 5.6 6.4 100 0.0 CALM 0 0 0 0 - - 0.0
28/10:30pm 6.7 5.9 6.7 100 0.0 CALM 0 0 0 0 - - 0.0
28/10:00pm 7.7 7.2 7.7 100 0.0 CALM 0 0 0 0 - - 0.0
28/09:30pm 7.7 7.2 7.7 100 0.0 CALM 0 0 0 0 - - 0.0
28/09:00pm 8.6 8.3 8.5 99 0.0 CALM 0 0 0 0 - - 0.0
28/08:30pm 8.4 7.9 8.0 97 0.2 CALM 0 0 0 0 - - 0.0
28/08:00pm 9.3 9.1 9.0 98 0.1 CALM 0 0 0 0 - - 0.0
28/07:30pm 9.6 9.1 7.9 89 0.8 CALM 0 0 0 0 - - 0.0
28/07:00pm 10.9 10.5 8.1 83 1.4 CALM 0 0 0 0 - - 0.0
28/06:30pm 12.3 11.9 8.4 77 1.9 CALM 0 0 0 0 - - 0.0
28/06:00pm 13.7 13.3 8.3 70 2.7 CALM 0 0 0 0 - - 0.0
28/05:30pm 16.4 16.1 8.6 60 4.0 CALM 0 0 0 0 - - 0.0
28/05:00pm 18.0 17.7 8.6 54 4.9 CALM 0 0 0 0 - - 0.0
28/04:30pm 18.3 17.8 7.7 50 5.4 CALM 0 0 0 0 - - 0.0
28/04:00pm 18.7 18.3 8.1 50 5.5 CALM 0 0 0 0 - - 0.0
28/03:30pm 19.1 18.7 8.1 49 5.7 CALM 0 0 0 0 - - 0.0
28/03:00pm 18.7 18.6 9.5 55 4.9 CALM 0 0 0 0 - - 0.0
28/02:30pm 18.7 18.5 9.2 54 5.0 CALM 0 0 0 0 - - 0.0
28/02:00pm 18.8 19.2 11.1 61 4.2 CALM 0 0 0 0 - - 0.0
28/01:30pm 17.8 18.1 10.9 64 3.7 CALM 0 0 0 0 - - 0.0
28/01:00pm 18.0 17.9 12.2 69 3.2 E 4 11 2 6 - - 0.0
28/12:30pm 17.2 17.7 11.5 69 3.1 CALM 0 0 0 0 - - 0.0
28/12:00pm 15.7 14.6 10.0 69 3.0 E 6 13 3 7 - - 0.0
28/11:30am 15.8 16.0 10.6 71 2.8 CALM 0 0 0 0 - - 0.0
28/11:00am 14.0 13.1 9.4 74 2.4 ESE 4 11 2 6 - - 0.0
28/10:30am 13.8 12.6 10.2 79 1.9 E 7 11 4 6 - - 0.0
28/10:00am 12.5 10.8 8.4 76 2.0 E 7 13 4 7 - - 0.0
28/09:30am 11.1 8.7 7.2 77 1.9 E 9 13 5 7 - - 0.0
28/09:00am 10.5 8.2 7.6 82 1.4 E 9 15 5 8 - - 0.0
28/08:30am 8.9 6.9 8.8 99 0.0 SE 9 13 5 7 - - 0.0
28/08:00am 7.2 - 7.3 - - SE 7 13 4 7 - - 0.0
28/07:30am 3.3 1.9 3.3 100 0.0 CALM 0 0 0 0 - - 0.0
28/07:00am 2.1 0.4 2.1 100 0.0 CALM 0 0 0 0 - - 0.0
28/06:30am 2.0 0.3 2.0 100 0.0 CALM 0 0 0 0 - - 0.0
28/06:00am 4.1 2.8 4.1 100 0.0 CALM 0 0 0 0 - - 0.0
28/05:30am 3.7 2.3 3.7 100 0.0 CALM 0 0 0 0 - - 0.0
28/05:00am 3.9 2.6 3.9 100 0.0 CALM 0 0 0 0 - - 0.0
28/04:30am 4.3 3.0 4.3 100 0.0 CALM 0 0 0 0 - - 0.0
28/04:00am 5.0 3.9 5.0 100 0.0 CALM 0 0 0 0 - - 0.0
28/03:30am 5.5 4.5 5.5 100 0.0 CALM 0 0 0 0 - - 0.0
28/03:00am 5.4 4.4 5.4 100 0.0 CALM 0 0 0 0 - - 0.0
28/02:30am 6.2 4.2 6.1 99 0.0 SSW 6 11 3 6 - - 0.0
28/02:00am 6.1 4.4 5.8 98 0.1 SSW 4 11 2 6 - - 0.0
28/01:30am 6.7 4.4 5.7 93 0.4 SSW 7 9 4 5 - - 0.0
28/01:00am 7.2 4.9 5.7 90 0.7 S 7 9 4 5 - - 0.0
28/12:30am 7.9 5.6 5.9 87 0.9 SSW 7 11 4 6 - - 0.0
28/12:00am 8.1 6.8 6.1 87 0.9 SSW 2 11 1 6 - - 0.0
 
Date/Time
EST
Temp
°C
App
Temp
°C
Dew
Point
Rel
Hum
%
Delta-T
°C
Wind Press
QNH
hPa
Press
MSL
hPa
Rain
since 9 am
mm
Dir
 
Spd
km/h
Gust
km/h
Spd
kts
Gust
kts
27/11:30pm 7.7 6.9 6.6 93 0.5 CALM 0 0 0 0 - - 0.0
27/11:00pm 8.0 7.4 7.6 97 0.2 CALM 0 0 0 0 - - 0.0
27/10:30pm 8.2 7.6 7.6 96 0.3 CALM 0 0 0 0 - - 0.0
27/10:00pm 8.7 8.2 7.9 95 0.4 CALM 0 0 0 0 - - 0.0
27/09:30pm 8.8 8.3 7.9 94 0.4 CALM 0 0 0 0 - - 0.0
27/09:00pm 9.7 9.2 8.0 89 0.8 CALM 0 0 0 0 - - 0.0
27/08:30pm 10.1 9.6 8.0 87 1.0 CALM 0 0 0 0 - - 0.0
27/08:00pm 11.1 10.7 8.3 83 1.4 CALM 0 0 0 0 - - 0.0
27/07:30pm 12.3 11.9 8.4 77 1.9 CALM 0 0 0 0 - - 0.0
27/07:00pm 12.7 12.4 8.6 76 2.1 CALM 0 0 0 0 - - 0.0
27/06:30pm 13.5 13.5 9.7 78 2.0 CALM 0 0 0 0 - - 0.0
27/06:00pm 14.6 14.6 9.8 73 2.5 CALM 0 0 0 0 - - 0.0
27/05:30pm 16.1 16.2 10.0 67 3.2 CALM 0 0 0 0 - - 0.0
27/05:00pm 17.9 18.0 10.0 60 4.2 CALM 0 0 0 0 - - 0.0
27/04:30pm 19.9 19.7 9.2 50 5.7 CALM 0 0 0 0 - - 0.0
27/04:00pm 19.4 19.3 9.6 53 5.2 CALM 0 0 0 0 - - 0.0
27/03:30pm 20.1 20.1 9.9 52 5.5 CALM 0 0 0 0 - - 0.0
27/03:00pm 19.9 19.6 10.0 53 5.3 S 2 11 1 6 - - 0.0
27/02:30pm 20.1 20.3 10.5 54 5.2 CALM 0 0 0 0 - - 0.0
27/02:00pm 19.9 18.4 10.6 55 5.1 S 9 13 5 7 - - 0.0
27/01:30pm 19.8 18.7 10.5 55 5.1 SSW 7 13 4 7 - - 0.0
27/01:00pm 19.3 19.7 11.1 59 4.5 CALM 0 0 0 0 - - 0.0
27/12:30pm 18.7 17.3 10.8 60 4.3 SSW 9 15 5 8 - - 0.0
27/12:00pm 17.8 16.4 10.9 64 3.7 SW 9 15 5 8 - - 0.0
27/11:30am 17.3 16.1 11.6 69 3.1 SW 9 15 5 8 - - 0.0
27/11:00am 16.2 15.3 10.5 69 3.0 SW 6 17 3 9 - - 0.0
27/10:30am 15.3 15.7 11.1 76 2.3 CALM 0 0 0 0 - - 0.0
27/10:00am 15.0 15.2 10.6 75 2.3 CALM 0 0 0 0 - - 0.0
27/09:30am 13.7 13.7 11.2 85 1.3 E 2 9 1 5 - - 0.0
27/09:00am 12.1 12.6 11.6 97 0.3 CALM 0 0 0 0 - - 0.0
27/08:30am 9.6 - 9.7 - - SSE 2 9 1 5 - - 0.0
27/08:00am 6.9 - 7.0 - - CALM 0 0 0 0 - - 0.0
27/07:30am 3.7 2.3 3.7 100 0.0 CALM 0 0 0 0 - - 0.0
27/07:00am 3.7 2.3 3.7 100 0.0 CALM 0 0 0 0 - - 0.0
27/06:30am 3.8 2.4 3.8 100 0.0 CALM 0 0 0 0 - - 0.0
27/06:00am 3.5 2.1 3.5 100 0.0 CALM 0 0 0 0 - - 0.0
27/05:30am 3.7 2.3 3.7 100 0.0 CALM 0 0 0 0 - - 0.0
27/05:00am 3.7 2.3 3.7 100 0.0 CALM 0 0 0 0 - - 0.0
27/04:30am 4.2 2.9 4.2 100 0.0 CALM 0 0 0 0 - - 0.0
27/04:00am 4.7 3.5 4.7 100 0.0 CALM 0 0 0 0 - - 0.0
27/03:30am 4.4 3.2 4.4 100 0.0 CALM 0 0 0 0 - - 0.0
27/03:00am 5.3 4.2 5.3 100 0.0 CALM 0 0 0 0 - - 0.0
27/02:30am 5.6 4.6 5.6 100 0.0 CALM 0 0 0 0 - - 0.0
27/02:00am 6.2 5.3 6.2 100 0.0 CALM 0 0 0 0 - - 0.0
27/01:30am 6.6 5.8 6.6 100 0.0 CALM 0 0 0 0 - - 0.0
27/01:00am 7.1 6.4 7.1 100 0.0 CALM 0 0 0 0 - - 0.0
27/12:30am 6.9 6.2 6.9 100 0.0 CALM 0 0 0 0 - - 0.0
27/12:00am 7.4 6.8 7.4 100 0.0 CALM 0 0 0 0 - - 0.0
 
Date/Time
EST
Temp
°C
App
Temp
°C
Dew
Point
Rel
Hum
%
Delta-T
°C
Wind Press
QNH
hPa
Press
MSL
hPa
Rain
since 9 am
mm
Dir
 
Spd
km/h
Gust
km/h
Spd
kts
Gust
kts
26/11:30pm 7.9 7.4 7.8 99 0.0 CALM 0 0 0 0 - - 0.0
26/11:00pm 8.9 8.6 8.8 99 0.0 CALM 0 0 0 0 - - 0.0
26/10:30pm 8.7 8.2 7.9 95 0.4 CALM 0 0 0 0 - - 0.0
26/10:00pm 9.5 9.1 8.4 93 0.5 CALM 0 0 0 0 - - 0.0
26/09:30pm 9.6 9.1 8.0 90 0.8 CALM 0 0 0 0 - - 0.0
26/09:00pm 10.4 10.2 9.0 91 0.7 CALM 0 0 0 0 - - 0.0
26/08:30pm 10.0 10.0 9.7 98 0.2 CALM 0 0 0 0 - - 0.0
26/08:00pm 10.4 10.2 9.0 91 0.7 CALM 0 0 0 0 - - 0.0

Other Formats:

Comma delimited format used in spreadsheet applications
http://www.bom.gov.au/fwo/IDV60801/IDV60801.95833.axf

JavaScript Object Notation format (JSON) in row-major order
http://www.bom.gov.au/fwo/IDV60801/IDV60801.95833.json